Time;durP1;ratioP1;P1;durP2;ratioP2;P2;SDS_P1;SDS_P2;PMS_P1;PMS_P2;Temp;Humidity;BMP_temperature;BMP_pressure;BME280_temperature;BME280_humidity;BME280_pressure;Samples;Min_cycle;Max_cycle;Signal;HPM_P1;HPM_P2
2023/10/07 00:00:38;;;;;;;18.92;4.93;;;18.30;99.90;;;;;;4900113;29;20187;-73
2023/10/07 00:03:07;;;;;;;18.83;5.32;;;18.30;99.90;;;;;;4900045;29;20610;-73
2023/10/07 00:05:35;;;;;;;21.75;5.18;;;18.30;99.90;;;;;;4900188;29;20303;-72
2023/10/07 00:08:12;;;;;;;22.52;5.88;;;18.30;99.90;;;;;;4882932;29;20735;-73
2023/10/07 00:10:41;;;;;;;21.92;5.18;;;18.30;99.90;;;;;;4898985;29;20196;-74
2023/10/07 00:13:11;;;;;;;18.50;5.07;;;18.40;99.90;;;;;;4898686;29;20197;-73
2023/10/07 00:15:38;;;;;;;19.77;5.60;;;18.30;99.90;;;;;;4899260;29;20279;-73
2023/10/07 00:18:12;;;;;;;27.13;5.65;;;18.30;99.90;;;;;;4899136;29;20272;-73
2023/10/07 00:20:48;;;;;;;26.08;5.90;;;18.30;99.90;;;;;;4899280;29;20192;-74
2023/10/07 00:23:22;;;;;;;20.13;5.35;;;18.30;99.90;;;;;;4899676;29;20188;-75
2023/10/07 00:25:52;;;;;;;21.42;5.95;;;18.40;99.90;;;;;;4898607;29;20224;-72
2023/10/07 00:28:32;;;;;;;20.33;5.10;;;18.30;99.90;;;;;;4914330;29;20188;-73
2023/10/07 00:31:02;;;;;;;18.88;5.57;;;18.30;99.90;;;;;;4898015;29;20220;-73
2023/10/07 00:33:51;;;;;;;27.35;5.97;;;18.30;99.90;;;;;;4899176;29;20649;-74
2023/10/07 00:39:03;;;;;;;15.57;4.72;;;18.40;99.90;;;;;;4898216;29;20200;-74
2023/10/07 00:41:37;;;;;;;22.15;5.50;;;18.30;99.90;;;;;;4898147;29;20735;-74
2023/10/07 00:44:31;;;;;;;14.90;5.47;;;18.40;99.90;;;;;;4899333;29;20189;-73
2023/10/07 00:47:07;;;;;;;25.77;5.47;;;18.30;99.90;;;;;;4898848;29;20669;-73
2023/10/07 00:49:57;;;;;;;20.60;5.60;;;18.30;99.90;;;;;;4897855;29;20217;-73
2023/10/07 00:52:32;;;;;;;21.05;5.53;;;18.30;99.90;;;;;;4884027;29;20307;-75
2023/10/07 01:00:00;;;;;;;14.05;4.75;;;18.30;99.90;;;;;;4899161;29;20292;-73
2023/10/07 01:02:30;;;;;;;25.58;5.68;;;18.30;99.90;;;;;;4911750;29;20239;-74
2023/10/07 01:05:00;;;;;;;20.08;5.32;;;18.20;99.90;;;;;;4898677;29;20209;-73
2023/10/07 01:07:31;;;;;;;18.92;6.03;;;18.20;99.90;;;;;;4897554;29;20204;-73
2023/10/07 01:12:44;;;;;;;16.83;5.85;;;18.00;99.90;;;;;;4899094;29;20240;-73
2023/10/07 01:15:23;;;;;;;19.98;6.40;;;18.00;99.90;;;;;;4901248;29;20290;-74
2023/10/07 01:17:57;;;;;;;20.67;6.25;;;17.90;99.90;;;;;;4912882;29;20208;-74
2023/10/07 01:20:33;;;;;;;30.48;7.00;;;17.90;99.90;;;;;;4898318;29;20203;-72
2023/10/07 01:23:07;;;;;;;18.65;5.97;;;17.90;99.90;;;;;;4897370;29;20184;-74
2023/10/07 01:25:43;;;;;;;18.95;6.25;;;17.90;99.90;;;;;;4913198;29;20228;-73
2023/10/07 01:28:14;;;;;;;21.60;6.40;;;17.80;99.90;;;;;;4899044;29;20317;-74
2023/10/07 01:33:38;;;;;;;21.02;5.70;;;17.90;99.90;;;;;;4896812;29;20197;-73
2023/10/07 01:36:16;;;;;;;18.42;6.20;;;17.80;99.90;;;;;;4896927;29;20192;-73
2023/10/07 01:38:51;;;;;;;21.15;5.65;;;17.90;99.90;;;;;;4898217;29;20548;-74
2023/10/07 01:41:27;;;;;;;24.30;5.55;;;17.80;99.90;;;;;;4898323;29;20192;-74
2023/10/07 01:43:59;;;;;;;19.00;6.13;;;17.90;99.90;;;;;;4893790;29;20200;-73
2023/10/07 01:46:32;;;;;;;16.02;5.45;;;17.90;99.90;;;;;;4896872;29;20643;-73
2023/10/07 01:49:04;;;;;;;20.27;5.78;;;17.90;99.90;;;;;;4898133;29;20185;-75
2023/10/07 01:51:31;;;;;;;19.77;5.60;;;17.90;99.90;;;;;;4897944;29;20208;-74
2023/10/07 01:54:02;;;;;;;31.13;6.07;;;17.90;99.90;;;;;;4896923;29;20193;-73
2023/10/07 01:56:32;;;;;;;22.00;5.53;;;18.00;99.90;;;;;;4897850;29;20563;-74
2023/10/07 01:59:04;;;;;;;18.88;6.25;;;18.00;99.90;;;;;;4912703;29;20189;-74
2023/10/07 02:01:31;;;;;;;18.17;5.97;;;18.00;99.90;;;;;;4895539;29;20193;-72
2023/10/07 02:04:00;;;;;;;15.30;6.18;;;18.00;99.90;;;;;;4895281;29;20248;-74
2023/10/07 02:06:28;;;;;;;25.02;6.25;;;18.00;99.90;;;;;;4896416;29;20200;-74
2023/10/07 02:08:54;;;;;;;19.55;6.35;;;18.10;99.90;;;;;;4897650;29;20196;-74
2023/10/07 02:11:28;;;;;;;17.13;6.32;;;18.10;99.90;;;;;;4896662;29;20252;-75
2023/10/07 02:13:57;;;;;;;21.60;6.50;;;18.10;99.90;;;;;;4896613;29;20271;-73
2023/10/07 02:16:25;;;;;;;23.42;6.20;;;18.10;99.90;;;;;;4896708;29;20260;-74
2023/10/07 02:18:52;;;;;;;17.98;5.72;;;18.20;99.90;;;;;;4912150;29;20196;-74
2023/10/07 02:21:20;;;;;;;17.92;4.95;;;18.10;99.90;;;;;;4897122;29;20189;-73
2023/10/07 02:23:47;;;;;;;19.67;5.60;;;18.20;99.90;;;;;;4896546;29;20264;-73
2023/10/07 02:28:44;;;;;;;19.92;5.10;;;18.20;99.90;;;;;;4897591;29;20264;-74
2023/10/07 02:31:15;;;;;;;17.27;5.60;;;18.30;99.90;;;;;;4896064;29;20188;-74
2023/10/07 02:33:42;;;;;;;19.05;5.75;;;18.30;99.90;;;;;;4896318;29;20211;-74
2023/10/07 02:36:14;;;;;;;18.98;5.50;;;18.30;99.90;;;;;;4894271;29;20216;-75
2023/10/07 02:38:43;;;;;;;24.63;6.03;;;18.30;99.90;;;;;;4880967;29;20290;-74
2023/10/07 02:41:17;;;;;;;14.23;4.60;;;18.30;99.90;;;;;;4897540;29;20188;-73
2023/10/07 02:43:48;;;;;;;14.90;4.40;;;18.30;99.90;;;;;;4897002;29;20204;-73
2023/10/07 02:46:31;;;;;;;12.13;4.15;;;18.30;99.90;;;;;;4909749;29;20228;-75
2023/10/07 02:49:20;;;;;;;18.83;4.82;;;18.30;99.90;;;;;;4896259;29;20193;-74
2023/10/07 02:51:49;;;;;;;17.13;4.45;;;18.30;99.90;;;;;;4876335;29;20181;-74
2023/10/07 02:54:19;;;;;;;12.75;4.03;;;18.40;99.90;;;;;;4892125;29;20649;-73
2023/10/07 02:57:04;;;;;;;18.98;4.63;;;18.40;99.90;;;;;;4893355;29;20638;-73
2023/10/07 02:59:33;;;;;;;20.52;5.18;;;18.40;99.90;;;;;;4894193;29;20705;-74
2023/10/07 03:04:58;;;;;;;14.90;4.50;;;18.40;99.90;;;;;;4894316;29;20347;-73
2023/10/07 03:07:25;;;;;;;21.10;4.50;;;18.40;99.90;;;;;;4893025;29;20199;-74
2023/10/07 03:12:47;;;;;;;21.70;5.15;;;18.40;99.90;;;;;;4885843;29;20288;-71
2023/10/07 03:18:03;;;;;;;18.40;4.43;;;18.40;99.90;;;;;;4895050;29;20276;-71
2023/10/07 03:20:31;;;;;;;16.88;4.50;;;18.40;99.90;;;;;;4895907;29;20200;-71
2023/10/07 03:23:11;;;;;;;15.00;4.60;;;18.40;99.90;;;;;;4879723;29;20192;-72
2023/10/07 03:28:18;;;;;;;18.77;5.22;;;18.40;99.90;;;;;;4895636;29;20213;-71
2023/10/07 03:30:52;;;;;;;17.85;5.10;;;18.40;99.90;;;;;;4893749;29;20193;-70
2023/10/07 03:38:34;;;;;;;16.83;5.95;;;18.40;99.90;;;;;;4894989;29;20196;-72
2023/10/07 03:41:00;;;;;;;24.95;5.28;;;18.40;99.90;;;;;;4896072;29;20189;-73
2023/10/07 03:43:26;;;;;;;16.05;4.93;;;18.40;99.90;;;;;;4895816;29;20249;-73
2023/10/07 03:45:56;;;;;;;19.25;5.10;;;18.40;99.90;;;;;;4896071;29;20224;-74
2023/10/07 03:48:23;;;;;;;21.75;5.35;;;18.40;99.90;;;;;;4894651;29;20586;-72
2023/10/07 03:50:59;;;;;;;18.80;4.78;;;18.40;99.90;;;;;;4898179;29;20208;-74
2023/10/07 03:53:31;;;;;;;21.10;4.95;;;18.40;99.90;;;;;;4902751;29;20247;-76
2023/10/07 03:56:06;;;;;;;17.00;4.75;;;18.40;99.90;;;;;;4902019;29;20189;-73
2023/10/07 03:58:36;;;;;;;18.55;5.10;;;18.40;99.90;;;;;;4896589;29;20526;-71
2023/10/07 04:01:11;;;;;;;20.85;5.07;;;18.40;99.90;;;;;;4896988;29;20338;-69
2023/10/07 04:03:46;;;;;;;18.77;4.55;;;18.40;99.90;;;;;;4897839;29;20189;-70
2023/10/07 04:06:30;;;;;;;19.08;5.00;;;18.40;99.90;;;;;;4897288;29;20239;-66
2023/10/07 04:09:05;;;;;;;23.73;4.55;;;18.40;99.90;;;;;;4889883;29;20725;-71
2023/10/07 04:11:37;;;;;;;19.50;5.28;;;18.40;99.90;;;;;;4898742;29;20182;-70
2023/10/07 04:14:18;;;;;;;29.60;4.88;;;18.40;99.90;;;;;;4898487;29;20185;-70
2023/10/07 04:16:47;;;;;;;23.05;4.20;;;18.40;99.90;;;;;;4898480;29;20239;-70
2023/10/07 04:21:43;;;;;;;16.73;4.88;;;18.40;99.90;;;;;;4898714;29;20288;-70
2023/10/07 04:24:10;;;;;;;23.40;5.00;;;18.40;99.90;;;;;;4896126;29;20185;-69
2023/10/07 04:26:39;;;;;;;17.00;4.60;;;18.40;99.90;;;;;;4884241;29;20259;-71
2023/10/07 04:29:08;;;;;;;21.00;5.60;;;18.40;99.90;;;;;;4895729;29;20193;-70
2023/10/07 04:31:37;;;;;;;20.20;5.15;;;18.40;99.90;;;;;;4895841;29;20649;-71
2023/10/07 04:34:14;;;;;;;20.55;4.72;;;18.40;99.90;;;;;;4894547;29;20646;-77
2023/10/07 04:39:36;;;;;;;18.20;4.97;;;18.40;99.90;;;;;;4887519;29;20653;-71
2023/10/07 04:42:05;;;;;;;22.25;5.32;;;18.40;99.90;;;;;;4896319;29;20193;-71
2023/10/07 04:50:15;;;;;;;17.73;5.05;;;18.40;99.90;;;;;;4892480;29;20188;-75
2023/10/07 04:52:51;;;;;;;19.00;4.90;;;18.40;99.90;;;;;;4896545;29;20275;-75
2023/10/07 04:55:25;;;;;;;16.85;4.80;;;18.40;99.90;;;;;;4897348;29;20219;-74
2023/10/07 05:03:02;;;;;;;15.90;4.53;;;18.40;99.90;;;;;;4893923;29;20204;-75
2023/10/07 05:05:35;;;;;;;19.75;4.78;;;18.30;99.90;;;;;;4886914;29;20201;-71
2023/10/07 05:08:11;;;;;;;19.13;4.53;;;18.40;99.90;;;;;;4890671;29;20193;-75
2023/10/07 05:10:43;;;;;;;16.92;4.80;;;18.40;99.90;;;;;;4898836;29;20196;-75
2023/10/07 05:13:10;;;;;;;21.05;4.90;;;18.40;99.90;;;;;;4896765;29;20272;-76
2023/10/07 05:15:41;;;;;;;20.20;4.93;;;18.40;99.90;;;;;;4897863;29;20268;-76
2023/10/07 05:18:13;;;;;;;14.55;4.88;;;18.40;99.90;;;;;;4898411;29;20217;-73
2023/10/07 05:20:42;;;;;;;17.75;4.70;;;18.40;99.90;;;;;;4890522;29;20269;-74
2023/10/07 05:23:13;;;;;;;19.88;4.72;;;18.30;99.90;;;;;;4896315;29;20207;-74
2023/10/07 05:25:48;;;;;;;22.92;4.70;;;18.40;99.90;;;;;;4898266;29;20637;-85
2023/10/07 05:28:20;;;;;;;23.38;5.70;;;18.30;99.90;;;;;;4897928;29;20203;-75
2023/10/07 05:30:53;;;;;;;17.30;4.40;;;18.30;99.90;;;;;;4886113;29;20238;-74
2023/10/07 05:33:27;;;;;;;20.42;5.30;;;18.30;99.90;;;;;;4897851;29;20211;-76
2023/10/07 05:36:13;;;;;;;18.88;4.80;;;18.30;99.90;;;;;;4898767;29;20193;-74
2023/10/07 05:38:53;;;;;;;28.10;4.93;;;18.30;99.90;;;;;;4898153;29;20187;-74
2023/10/07 05:41:24;;;;;;;17.92;4.60;;;18.30;99.90;;;;;;4897939;29;20239;-77
2023/10/07 05:43:51;;;;;;;15.10;4.50;;;18.30;99.90;;;;;;4896967;29;20192;-71
2023/10/07 05:46:19;;;;;;;20.92;4.63;;;18.30;99.90;;;;;;4890584;29;20241;-76
2023/10/07 05:48:46;;;;;;;20.55;4.25;;;18.30;99.90;;;;;;4897627;29;20312;-73
2023/10/07 05:51:12;;;;;;;15.98;4.13;;;18.30;99.90;;;;;;4892393;29;20193;-73
2023/10/07 05:53:48;;;;;;;23.67;4.45;;;18.30;99.90;;;;;;4897379;29;20200;-73
2023/10/07 05:56:14;;;;;;;14.02;3.83;;;18.30;99.90;;;;;;4897016;29;20196;-72
2023/10/07 05:58:41;;;;;;;16.88;4.60;;;18.30;99.90;;;;;;4897660;29;20185;-75
2023/10/07 06:01:18;;;;;;;17.85;4.85;;;18.30;99.90;;;;;;4897949;29;20191;-72
2023/10/07 06:03:46;;;;;;;19.27;4.53;;;18.30;99.90;;;;;;4896406;29;20188;-73
2023/10/07 06:06:14;;;;;;;15.40;4.13;;;18.20;99.90;;;;;;4894928;29;20887;-74
2023/10/07 06:08:40;;;;;;;11.68;4.20;;;18.20;99.90;;;;;;4896645;29;20671;-73
2023/10/07 06:11:10;;;;;;;18.50;4.57;;;18.20;99.90;;;;;;4896212;29;20196;-72
2023/10/07 06:13:40;;;;;;;18.85;4.50;;;18.10;99.90;;;;;;4898015;29;20275;-72
2023/10/07 06:16:07;;;;;;;18.45;4.25;;;18.10;99.90;;;;;;4895913;29;20680;-73
2023/10/07 06:18:33;;;;;;;17.45;4.43;;;18.10;99.90;;;;;;4896166;29;20702;-73
2023/10/07 06:23:46;;;;;;;14.73;4.13;;;18.00;99.90;;;;;;4897691;29;20267;-74
2023/10/07 06:26:12;;;;;;;21.00;4.60;;;18.00;99.90;;;;;;4895557;29;20311;-72
2023/10/07 06:28:44;;;;;;;17.48;4.50;;;18.00;99.90;;;;;;4896543;29;20188;-72
2023/10/07 06:31:11;;;;;;;20.52;4.35;;;17.90;99.90;;;;;;4897382;29;20188;-74
2023/10/07 06:36:54;;;;;;;19.00;5.13;;;17.90;99.90;;;;;;4825974;29;20206;-74
2023/10/07 06:39:27;;;;;;;19.67;4.22;;;17.90;99.90;;;;;;4857107;29;20277;-73
2023/10/07 06:41:55;;;;;;;19.77;4.32;;;18.00;99.90;;;;;;4870866;29;20221;-75
2023/10/07 06:44:27;;;;;;;18.63;4.25;;;17.90;99.90;;;;;;4896203;29;20733;-74
2023/10/07 06:46:56;;;;;;;18.67;4.32;;;18.00;99.90;;;;;;4893906;29;20212;-73
2023/10/07 06:49:22;;;;;;;19.05;4.60;;;18.00;99.90;;;;;;4895401;29;20184;-74
2023/10/07 06:51:57;;;;;;;21.05;4.38;;;18.00;99.90;;;;;;4893695;29;20193;-72
2023/10/07 06:54:32;;;;;;;20.00;4.72;;;18.00;99.90;;;;;;4886469;29;20654;-73
2023/10/07 06:57:04;;;;;;;16.60;4.10;;;18.00;99.90;;;;;;4890701;29;20274;-72
2023/10/07 06:59:30;;;;;;;16.88;3.72;;;18.10;99.90;;;;;;4895416;29;20193;-72
2023/10/07 07:01:57;;;;;;;17.77;4.40;;;18.10;99.90;;;;;;4880209;29;20195;-71
2023/10/07 07:04:27;;;;;;;14.02;3.90;;;18.10;99.90;;;;;;4895464;29;20208;-74
2023/10/07 07:07:12;;;;;;;14.05;4.22;;;18.10;99.90;;;;;;4896275;29;20243;-74
2023/10/07 07:09:58;;;;;;;16.23;3.78;;;18.10;99.90;;;;;;4895850;29;20220;-72
2023/10/07 07:12:26;;;;;;;12.57;3.92;;;18.20;99.90;;;;;;4890936;29;20244;-71
2023/10/07 07:15:57;;;;;;;14.50;4.25;;;18.20;99.90;;;;;;4896617;29;20189;-74
2023/10/07 07:17:47;;;;;;;19.45;4.00;;;18.20;99.90;;;;;;4891755;29;20208;-74
2023/10/07 07:22:45;;;;;;;40.10;23.50;;;18.30;99.90;;;;;;4896568;29;20272;-74
2023/10/07 07:27:49;;;;;;;12.32;4.20;;;18.30;99.90;;;;;;4893643;29;20244;-72
2023/10/07 07:30:52;;;;;;;18.23;4.18;;;18.30;99.90;;;;;;4896024;29;20271;-73
2023/10/07 07:33:08;;;;;;;18.27;4.70;;;18.30;99.90;;;;;;4895272;29;20204;-74
2023/10/07 07:35:39;;;;;;;13.77;3.95;;;18.30;99.90;;;;;;4911147;29;20225;-71
2023/10/07 07:38:17;;;;;;;12.70;3.72;;;18.30;99.90;;;;;;4896271;29;20181;-73
2023/10/07 07:40:43;;;;;;;13.18;3.63;;;18.40;99.90;;;;;;4893827;29;20279;-73
2023/10/07 07:43:13;;;;;;;13.68;4.40;;;18.40;99.90;;;;;;4895598;29;20661;-75
2023/10/07 07:45:40;;;;;;;16.75;4.10;;;18.40;99.90;;;;;;4895721;29;20256;-73
2023/10/07 07:48:07;;;;;;;16.88;4.07;;;18.50;99.90;;;;;;4896267;29;20738;-74
2023/10/07 07:50:39;;;;;;;11.77;3.85;;;18.50;99.90;;;;;;4893305;29;20669;-72
2023/10/07 07:53:09;;;;;;;14.68;3.83;;;18.60;99.90;;;;;;4892463;29;20283;-70
2023/10/07 07:55:43;;;;;;;18.48;3.80;;;18.60;99.90;;;;;;4892793;29;20200;-68
2023/10/07 07:58:10;;;;;;;23.00;4.53;;;18.60;99.90;;;;;;4889796;29;20667;-70
2023/10/07 08:00:58;;;;;;;10.73;3.78;;;18.70;99.90;;;;;;4892149;29;20185;-71
2023/10/07 08:03:27;;;;;;;19.00;4.72;;;18.70;99.90;;;;;;4895965;29;20213;-69
2023/10/07 08:05:54;;;;;;;14.60;4.32;;;18.80;99.90;;;;;;4896255;29;20224;-73
2023/10/07 08:08:24;;;;;;;15.00;3.88;;;18.80;99.90;;;;;;4895965;29;20681;-73
2023/10/07 08:10:56;;;;;;;17.05;3.85;;;18.90;99.90;;;;;;4892460;29;20646;-73
2023/10/07 08:13:24;;;;;;;17.73;4.00;;;18.90;99.90;;;;;;4897022;29;20231;-73
2023/10/07 08:15:51;;;;;;;13.68;3.88;;;19.00;99.90;;;;;;4897969;29;20343;-74
2023/10/07 08:18:22;;;;;;;13.20;4.32;;;19.00;99.90;;;;;;4899453;29;20201;-73
2023/10/07 08:20:56;;;;;;;14.43;4.10;;;19.10;99.90;;;;;;4899758;29;20268;-73
2023/10/07 08:23:28;;;;;;;13.23;3.97;;;19.10;99.90;;;;;;4897607;29;20198;-73
2023/10/07 08:26:48;;;;;;;19.02;4.63;;;19.20;99.90;;;;;;4899003;29;20312;-74
2023/10/07 08:28:59;;;;;;;18.52;4.45;;;19.20;99.90;;;;;;4891556;29;20212;-73
2023/10/07 08:31:39;;;;;;;12.57;4.00;;;19.20;99.90;;;;;;4899604;29;20196;-73
2023/10/07 08:36:34;;;;;;;10.30;4.15;;;19.20;99.90;;;;;;4898249;29;20205;-74
2023/10/07 08:39:05;;;;;;;14.90;4.60;;;19.30;99.90;;;;;;4898848;29;20208;-73
2023/10/07 08:41:31;;;;;;;16.80;4.50;;;19.20;99.90;;;;;;4899865;29;20216;-73
2023/10/07 08:44:15;;;;;;;15.60;4.85;;;19.20;99.90;;;;;;4882669;29;20198;-73
2023/10/07 08:46:49;;;;;;;14.57;4.45;;;19.20;99.90;;;;;;4898865;29;20220;-73
2023/10/07 08:49:27;;;;;;;18.25;4.90;;;19.30;99.90;;;;;;4909545;29;20275;-72
2023/10/07 08:51:54;;;;;;;15.60;5.00;;;19.40;99.90;;;;;;4896255;29;20184;-74
2023/10/07 08:54:26;;;;;;;12.48;4.20;;;19.40;99.90;;;;;;4897221;29;20268;-72
2023/10/07 08:56:59;;;;;;;20.27;5.57;;;19.40;99.90;;;;;;4897983;29;20276;-72
2023/10/07 08:59:30;;;;;;;18.33;5.05;;;19.40;99.90;;;;;;4898159;29;20189;-74
2023/10/07 09:01:57;;;;;;;17.90;5.35;;;19.50;99.90;;;;;;4896910;29;20197;-73
2023/10/07 09:04:33;;;;;;;18.02;5.05;;;19.50;99.90;;;;;;4897255;29;20276;-74
2023/10/07 09:07:08;;;;;;;18.85;4.40;;;19.50;99.90;;;;;;4898121;29;20218;-74
2023/10/07 09:09:38;;;;;;;11.75;4.50;;;19.50;99.90;;;;;;4896575;29;20223;-75
2023/10/07 09:12:14;;;;;;;17.88;4.70;;;19.50;99.90;;;;;;4898025;29;20196;-73
2023/10/07 09:14:51;;;;;;;17.73;4.70;;;19.50;99.90;;;;;;4898371;29;20283;-74
2023/10/07 09:17:23;;;;;;;15.30;4.57;;;19.50;99.90;;;;;;4896313;29;20236;-74
2023/10/07 09:19:52;;;;;;;16.92;5.20;;;19.50;99.90;;;;;;4896394;29;20189;-73
2023/10/07 09:22:33;;;;;;;18.05;4.72;;;19.60;99.90;;;;;;4898433;29;20203;-73
2023/10/07 09:25:16;;;;;;;16.90;5.05;;;19.60;99.90;;;;;;4897591;29;20213;-74
2023/10/07 09:27:54;;;;;;;20.58;4.97;;;19.60;99.90;;;;;;4898304;29;20193;-74
2023/10/07 09:33:21;;;;;;;15.10;4.82;;;19.60;99.90;;;;;;4887279;29;20568;-73
2023/10/07 09:36:33;;;;;;;21.40;5.10;;;19.60;99.90;;;;;;4893572;29;20228;-74
2023/10/07 09:38:43;;;;;;;16.00;4.90;;;19.60;99.90;;;;;;4891288;29;20668;-72
2023/10/07 09:41:12;;;;;;;17.45;5.03;;;19.60;99.90;;;;;;4889772;29;20277;-75
2023/10/07 09:43:43;;;;;;;21.23;5.55;;;19.60;99.90;;;;;;4885610;29;20662;-74
2023/10/07 09:46:10;;;;;;;24.92;5.20;;;19.50;99.90;;;;;;4887434;29;20267;-75
2023/10/07 09:48:41;;;;;;;21.98;5.50;;;19.50;99.90;;;;;;4891957;29;20252;-73
2023/10/07 09:51:28;;;;;;;18.42;5.28;;;19.50;99.90;;;;;;4896875;29;20192;-74
2023/10/07 09:54:26;;;;;;;24.00;5.97;;;19.50;99.90;;;;;;4896468;29;20192;-74
2023/10/07 09:57:21;;;;;;;22.85;5.57;;;19.40;99.90;;;;;;4900259;29;20208;-73
2023/10/07 10:03:20;;;;;;;21.25;6.18;;;19.50;99.90;;;;;;4891799;29;20659;-73
2023/10/07 10:06:07;;;;;;;25.15;6.72;;;19.50;99.90;;;;;;4911670;29;20643;-73
2023/10/07 10:08:55;;;;;;;17.23;5.38;;;19.50;99.90;;;;;;4896972;29;20260;-72
2023/10/07 10:11:41;;;;;;;26.52;5.97;;;19.60;99.90;;;;;;4897054;29;20189;-76
2023/10/07 10:16:44;;;;;;;23.27;5.85;;;19.60;99.90;;;;;;4898611;29;20242;-74
2023/10/07 10:19:44;;;;;;;21.42;5.80;;;19.60;99.90;;;;;;4899344;29;20193;-76
2023/10/07 10:22:12;;;;;;;17.83;5.63;;;19.60;99.90;;;;;;4896831;29;20189;-76
2023/10/07 10:24:43;;;;;;;18.70;5.53;;;19.70;99.90;;;;;;4899542;29;20267;-74
2023/10/07 10:27:11;;;;;;;18.00;5.45;;;19.80;99.90;;;;;;4899442;29;20386;-75
2023/10/07 10:30:04;;;;;;;22.67;5.78;;;19.80;99.90;;;;;;4898888;29;20676;-73
2023/10/07 10:32:36;;;;;;;16.92;5.60;;;19.80;99.90;;;;;;4898991;29;20262;-74
2023/10/07 10:35:06;;;;;;;19.55;5.53;;;19.80;99.90;;;;;;4897348;29;20240;-73
2023/10/07 10:37:34;;;;;;;18.33;5.10;;;19.90;99.90;;;;;;4898195;29;20264;-74
2023/10/07 10:40:14;;;;;;;15.25;5.22;;;19.90;99.90;;;;;;4899309;29;20545;-74
2023/10/07 10:42:47;;;;;;;20.02;5.13;;;20.00;99.90;;;;;;4899473;29;20184;-75
2023/10/07 10:45:24;;;;;;;16.77;5.22;;;20.00;99.90;;;;;;4896865;29;20665;-75
2023/10/07 10:47:54;;;;;;;20.00;5.53;;;20.00;99.90;;;;;;4894635;29;20192;-72
2023/10/07 10:50:23;;;;;;;12.57;4.60;;;20.00;99.90;;;;;;4895973;29;20219;-73
2023/10/07 10:52:50;;;;;;;24.10;4.97;;;20.10;99.90;;;;;;4895834;29;20197;-75
2023/10/07 10:55:17;;;;;;;19.65;5.43;;;20.10;99.90;;;;;;4896475;29;20197;-73
2023/10/07 10:57:44;;;;;;;20.40;5.63;;;20.10;99.90;;;;;;4895888;29;20291;-74
2023/10/07 11:00:21;;;;;;;22.15;5.35;;;20.10;99.90;;;;;;4896390;29;20191;-73
2023/10/07 11:02:49;;;;;;;20.33;5.95;;;20.10;99.90;;;;;;4896549;29;20653;-75
2023/10/07 11:05:15;;;;;;;24.70;5.95;;;20.00;99.90;;;;;;4896360;29;20677;-76
2023/10/07 11:07:43;;;;;;;19.85;5.47;;;20.00;99.90;;;;;;4897291;29;20283;-74
2023/10/07 11:10:17;;;;;;;16.80;5.57;;;20.00;99.90;;;;;;4895549;29;20236;-71
2023/10/07 11:12:45;;;;;;;19.13;5.30;;;19.90;99.90;;;;;;4895925;29;20268;-74
2023/10/07 11:15:15;;;;;;;19.50;5.03;;;19.80;99.90;;;;;;4896158;29;20189;-73
2023/10/07 11:17:41;;;;;;;22.75;5.57;;;19.80;99.90;;;;;;4896142;29;20236;-73
2023/10/07 11:20:19;;;;;;;15.73;5.20;;;19.80;99.90;;;;;;4895928;29;20204;-74
2023/10/07 11:22:45;;;;;;;18.75;5.85;;;19.80;99.90;;;;;;4892052;29;20565;-74
2023/10/07 11:25:18;;;;;;;18.33;5.55;;;19.80;99.90;;;;;;4896434;29;20223;-74
2023/10/07 11:27:44;;;;;;;16.88;5.40;;;19.80;99.90;;;;;;4895695;29;20216;-73
2023/10/07 11:30:11;;;;;;;18.27;5.15;;;19.80;99.90;;;;;;4887398;29;20181;-74
2023/10/07 11:32:39;;;;;;;21.05;5.03;;;19.80;99.90;;;;;;4895813;29;20200;-74
2023/10/07 11:35:27;;;;;;;19.17;5.88;;;19.80;99.90;;;;;;4895746;29;20278;-72
2023/10/07 11:37:57;;;;;;;18.13;5.43;;;19.70;99.90;;;;;;4894880;29;20256;-73
2023/10/07 11:40:30;;;;;;;20.70;5.32;;;19.70;99.90;;;;;;4895709;29;20224;-74
2023/10/07 11:42:58;;;;;;;18.02;5.43;;;19.70;99.90;;;;;;4896254;29;20212;-71
2023/10/07 11:45:26;;;;;;;16.30;5.32;;;19.70;99.90;;;;;;4895670;29;20618;-72
2023/10/07 11:47:57;;;;;;;19.38;6.05;;;19.70;99.90;;;;;;4899047;29;20211;-71
2023/10/07 11:50:27;;;;;;;18.58;5.95;;;19.70;99.90;;;;;;4913842;29;20232;-72
2023/10/07 11:52:53;;;;;;;17.55;5.68;;;19.80;99.90;;;;;;4914548;29;20205;-73
2023/10/07 11:55:20;;;;;;;18.52;5.18;;;19.80;99.90;;;;;;4899029;29;20625;-73
2023/10/07 11:57:46;;;;;;;17.63;5.53;;;19.80;99.90;;;;;;4898754;29;20200;-71
2023/10/07 12:00:29;;;;;;;14.75;5.38;;;19.90;99.90;;;;;;4899476;29;20191;-73
2023/10/07 12:02:57;;;;;;;17.88;5.95;;;19.90;99.90;;;;;;4898814;29;20685;-73
2023/10/07 12:05:27;;;;;;;18.48;4.75;;;19.90;99.90;;;;;;4898205;29;20220;-73
2023/10/07 12:08:01;;;;;;;14.40;5.25;;;19.80;99.90;;;;;;4894029;29;20641;-74
2023/10/07 12:10:28;;;;;;;12.50;4.75;;;19.80;99.90;;;;;;4899932;29;20279;-74
2023/10/07 12:12:54;;;;;;;21.52;5.85;;;19.70;99.90;;;;;;4899730;29;20200;-73
2023/10/07 12:15:21;;;;;;;14.63;5.20;;;19.70;99.90;;;;;;4897188;29;20215;-74
2023/10/07 12:17:50;;;;;;;18.27;5.55;;;19.60;99.90;;;;;;4896866;29;20247;-72
2023/10/07 12:20:16;;;;;;;25.73;5.78;;;19.60;99.90;;;;;;4897899;29;20633;-74
2023/10/07 12:22:43;;;;;;;16.48;5.32;;;19.60;99.90;;;;;;4897907;29;20201;-69
2023/10/07 12:25:16;;;;;;;19.20;5.50;;;19.60;99.90;;;;;;4899006;29;20212;-75
2023/10/07 12:27:43;;;;;;;16.42;5.38;;;19.60;99.90;;;;;;4899398;29;20189;-72
2023/10/07 12:30:11;;;;;;;25.75;5.82;;;19.60;99.90;;;;;;4899049;29;20184;-73
2023/10/07 12:32:39;;;;;;;18.05;5.65;;;19.60;99.90;;;;;;4899070;29;20192;-76
2023/10/07 12:35:09;;;;;;;19.63;6.22;;;19.60;99.90;;;;;;4897983;29;20268;-74
2023/10/07 12:37:38;;;;;;;11.80;5.15;;;19.70;99.90;;;;;;4896048;29;20196;-73
2023/10/07 12:40:10;;;;;;;16.92;5.15;;;19.70;99.90;;;;;;4896757;29;20188;-74
2023/10/07 12:42:41;;;;;;;23.90;5.78;;;19.80;99.90;;;;;;4897508;29;20222;-73
2023/10/07 12:45:11;;;;;;;19.08;4.97;;;19.80;99.90;;;;;;4897596;29;20308;-73
2023/10/07 12:47:51;;;;;;;21.52;5.43;;;19.80;99.90;;;;;;4880262;29;20189;-72
2023/10/07 12:50:24;;;;;;;17.55;5.20;;;19.80;99.90;;;;;;4894342;29;20181;-73
2023/10/07 12:52:50;;;;;;;20.23;5.25;;;19.80;99.90;;;;;;4897343;29;20188;-72
2023/10/07 12:55:17;;;;;;;17.67;6.05;;;19.80;99.90;;;;;;4898733;29;20184;-74
2023/10/07 12:57:44;;;;;;;15.45;4.90;;;19.80;99.90;;;;;;4898633;29;20752;-72
2023/10/07 13:00:22;;;;;;;23.60;5.68;;;19.80;99.90;;;;;;4899032;29;20189;-73
2023/10/07 13:02:55;;;;;;;14.70;5.20;;;19.70;99.90;;;;;;4913911;29;20192;-74
2023/10/07 13:05:24;;;;;;;19.35;5.53;;;19.70;99.90;;;;;;4898853;29;20283;-73
2023/10/07 13:07:53;;;;;;;19.42;5.45;;;19.60;99.90;;;;;;4898116;29;20285;-73
2023/10/07 13:10:19;;;;;;;18.45;5.40;;;19.60;99.90;;;;;;4897345;29;20188;-73
2023/10/07 13:12:46;;;;;;;23.00;5.68;;;19.50;99.90;;;;;;4897648;29;20192;-70
2023/10/07 13:15:17;;;;;;;18.80;5.05;;;19.50;99.90;;;;;;4897850;29;20189;-73
2023/10/07 13:17:48;;;;;;;20.90;5.97;;;19.40;99.90;;;;;;4888683;29;20251;-74
2023/10/07 13:20:20;;;;;;;16.17;5.63;;;19.40;99.90;;;;;;4895857;29;20212;-76
2023/10/07 13:23:00;;;;;;;20.42;5.90;;;19.40;99.90;;;;;;4905322;29;20289;-73
2023/10/07 13:25:26;;;;;;;20.25;6.00;;;19.30;99.90;;;;;;4885512;29;20216;-74
2023/10/07 13:27:56;;;;;;;23.05;6.45;;;19.30;99.90;;;;;;4888359;29;20197;-72
2023/10/07 13:30:25;;;;;;;21.95;6.13;;;19.20;99.90;;;;;;4891666;29;20384;-74
2023/10/07 13:32:54;;;;;;;19.25;6.28;;;19.30;99.90;;;;;;4897533;29;20199;-73
2023/10/07 13:35:22;;;;;;;22.33;5.80;;;19.20;99.90;;;;;;4899497;29;20200;-72
2023/10/07 13:37:50;;;;;;;25.70;6.80;;;19.30;99.90;;;;;;4899753;29;20184;-73
2023/10/07 13:40:20;;;;;;;24.05;5.93;;;19.20;99.90;;;;;;4899461;29;20646;-73
2023/10/07 13:42:51;;;;;;;19.95;5.47;;;19.30;99.90;;;;;;4897704;29;20193;-75
2023/10/07 13:45:23;;;;;;;19.45;5.80;;;19.30;99.90;;;;;;4916006;29;20205;-76
2023/10/07 13:47:53;;;;;;;20.27;5.60;;;19.20;99.90;;;;;;4902194;29;20219;-77
2023/10/07 13:50:25;;;;;;;17.55;5.70;;;19.20;99.90;;;;;;4900449;29;20177;-77
2023/10/07 13:53:11;;;;;;;26.35;6.47;;;19.20;99.90;;;;;;4899334;29;20192;-76
2023/10/07 13:58:09;;;;;;;23.83;6.68;;;19.10;99.90;;;;;;4898133;29;20725;-73
2023/10/07 14:00:36;;;;;;;19.98;6.18;;;19.00;99.90;;;;;;4895945;29;20191;-71
2023/10/07 14:03:19;;;;;;;20.20;7.18;;;19.00;99.90;;;;;;4897452;29;20184;-74
2023/10/07 14:05:48;;;;;;;18.30;5.65;;;19.00;99.90;;;;;;4898817;29;20224;-74
2023/10/07 14:08:15;;;;;;;17.80;6.18;;;19.00;99.90;;;;;;4899225;29;20193;-78
2023/10/07 14:10:56;;;;;;;21.90;6.88;;;18.90;99.90;;;;;;4895717;29;20248;-74
2023/10/07 14:13:31;;;;;;;23.63;6.15;;;18.90;99.90;;;;;;4896488;29;20184;-72